Time;durP1;ratioP1;P1;durP2;ratioP2;P2;SDS_P1;SDS_P2;PMS_P1;PMS_P2;Temp;Humidity;BMP_temperature;BMP_pressure;BME280_temperature;BME280_humidity;BME280_pressure;Samples;Min_cycle;Max_cycle;Signal;HPM_P1;HPM_P2
2024/01/29 00:00:03;;;;;;;4.43;3.53;;;15.40;53.70;;;;;;5055548;28;20179;-65
2024/01/29 00:02:30;;;;;;;3.95;3.53;;;15.40;53.70;;;;;;5055083;28;20646;-65
2024/01/29 00:04:55;;;;;;;4.07;3.67;;;15.40;53.70;;;;;;5054693;28;20228;-64
2024/01/29 00:07:21;;;;;;;4.32;3.55;;;15.40;53.70;;;;;;5055143;28;20548;-65
2024/01/29 00:09:47;;;;;;;4.40;3.92;;;15.40;53.70;;;;;;5055163;28;20179;-65
2024/01/29 00:12:12;;;;;;;3.85;3.50;;;15.30;53.70;;;;;;5054814;28;20194;-65
2024/01/29 00:14:38;;;;;;;3.30;3.00;;;15.30;53.70;;;;;;5055136;28;20176;-65
2024/01/29 00:17:03;;;;;;;4.10;3.70;;;15.30;53.60;;;;;;5055266;28;20178;-65
2024/01/29 00:19:29;;;;;;;3.58;3.22;;;15.30;53.70;;;;;;5054150;28;20198;-65
2024/01/29 00:21:54;;;;;;;3.70;3.30;;;15.30;53.70;;;;;;5055143;28;20635;-65
2024/01/29 00:24:20;;;;;;;3.53;3.22;;;15.30;53.70;;;;;;5054479;28;20171;-65
2024/01/29 00:26:46;;;;;;;4.00;3.60;;;15.30;53.70;;;;;;5054522;28;20228;-65
2024/01/29 00:29:11;;;;;;;3.70;3.40;;;15.30;53.70;;;;;;5055132;28;20175;-64
2024/01/29 00:31:37;;;;;;;3.63;3.33;;;15.30;53.70;;;;;;5054775;28;20281;-64
2024/01/29 00:34:02;;;;;;;3.53;3.22;;;15.30;53.70;;;;;;5054229;28;20720;-64
2024/01/29 00:36:28;;;;;;;5.28;3.78;;;15.20;53.60;;;;;;5054439;28;20704;-64
2024/01/29 00:38:53;;;;;;;3.90;3.50;;;15.20;53.50;;;;;;5054814;28;20187;-65
2024/01/29 00:41:19;;;;;;;3.38;3.08;;;15.20;53.50;;;;;;5053767;28;20182;-65
2024/01/29 00:43:44;;;;;;;3.50;3.20;;;15.20;53.60;;;;;;5054928;28;20174;-64
2024/01/29 00:46:10;;;;;;;3.40;3.10;;;15.20;53.60;;;;;;5054494;28;20731;-64
2024/01/29 00:48:35;;;;;;;3.55;3.25;;;15.20;53.60;;;;;;5053628;28;20179;-63
2024/01/29 00:51:01;;;;;;;3.10;2.80;;;15.20;53.60;;;;;;5054537;28;20603;-64
2024/01/29 00:53:27;;;;;;;3.42;3.13;;;15.20;53.60;;;;;;5052833;28;20700;-64
2024/01/29 00:55:53;;;;;;;3.63;3.33;;;15.20;53.60;;;;;;5053372;28;20226;-65
2024/01/29 00:58:19;;;;;;;3.45;3.15;;;15.20;53.60;;;;;;5053625;28;20179;-65
2024/01/29 01:00:45;;;;;;;3.50;2.97;;;15.20;53.60;;;;;;5054257;28;20260;-65
2024/01/29 01:03:11;;;;;;;3.78;3.33;;;15.20;53.60;;;;;;5053735;28;20705;-65
2024/01/29 01:05:36;;;;;;;3.42;3.10;;;15.20;53.60;;;;;;5053971;28;20229;-64
2024/01/29 01:08:03;;;;;;;3.50;3.20;;;15.20;53.60;;;;;;5053433;28;20657;-65
2024/01/29 01:10:29;;;;;;;3.47;3.17;;;15.20;53.70;;;;;;5053723;28;20179;-66
2024/01/29 01:12:54;;;;;;;3.75;3.45;;;15.10;53.60;;;;;;5054343;28;20512;-65
2024/01/29 01:15:20;;;;;;;3.20;2.90;;;15.10;53.60;;;;;;5053119;28;20174;-65
2024/01/29 01:17:45;;;;;;;3.15;2.85;;;15.10;53.60;;;;;;5054094;28;20174;-65
2024/01/29 01:20:11;;;;;;;3.40;3.00;;;15.10;53.60;;;;;;5054124;28;20185;-66
2024/01/29 01:22:37;;;;;;;2.88;2.67;;;15.10;53.60;;;;;;5052798;28;20179;-65
2024/01/29 01:25:03;;;;;;;3.38;3.08;;;15.10;53.60;;;;;;5053939;28;20248;-66
2024/01/29 01:27:29;;;;;;;3.53;3.22;;;15.10;53.60;;;;;;5053517;28;20176;-65
2024/01/29 01:29:54;;;;;;;3.50;3.20;;;15.10;53.60;;;;;;5053332;28;20183;-64
2024/01/29 01:32:20;;;;;;;3.13;2.92;;;15.10;53.60;;;;;;5053605;28;20221;-64
2024/01/29 01:34:46;;;;;;;3.40;3.10;;;15.10;53.60;;;;;;5053797;28;20187;-63
2024/01/29 01:37:11;;;;;;;3.35;3.03;;;15.00;53.50;;;;;;5052898;28;20637;-64
2024/01/29 01:39:37;;;;;;;2.90;2.70;;;15.00;53.50;;;;;;5053273;28;20204;-64
2024/01/29 01:42:04;;;;;;;3.10;2.80;;;15.00;53.60;;;;;;5053506;28;20217;-65
2024/01/29 01:44:30;;;;;;;2.90;2.70;;;15.00;53.50;;;;;;5052459;28;20658;-64
2024/01/29 01:46:55;;;;;;;3.42;3.13;;;15.00;53.50;;;;;;5053509;28;20278;-63
2024/01/29 01:49:21;;;;;;;2.85;2.65;;;15.00;53.50;;;;;;5053181;28;20186;-64
2024/01/29 01:51:47;;;;;;;2.92;2.67;;;15.00;53.50;;;;;;5052601;28;20175;-63
2024/01/29 01:54:12;;;;;;;3.47;3.17;;;15.00;53.50;;;;;;5053101;28;20302;-64
2024/01/29 01:56:38;;;;;;;3.30;2.67;;;15.00;53.50;;;;;;5035117;28;20175;-65
2024/01/29 01:59:03;;;;;;;2.97;2.78;;;15.00;53.50;;;;;;5052691;28;20179;-65
2024/01/29 02:01:29;;;;;;;2.78;2.50;;;15.00;53.50;;;;;;5052964;28;20213;-65
2024/01/29 02:03:55;;;;;;;3.00;2.70;;;15.00;53.50;;;;;;5051637;28;20646;-64
2024/01/29 02:06:20;;;;;;;2.92;2.72;;;15.00;53.50;;;;;;5051860;28;20222;-65
2024/01/29 02:08:46;;;;;;;3.13;2.90;;;15.00;53.50;;;;;;5053309;28;20174;-66
2024/01/29 02:11:11;;;;;;;3.10;2.80;;;14.90;53.50;;;;;;5052562;28;20249;-65
2024/01/29 02:13:37;;;;;;;3.10;2.90;;;14.90;53.50;;;;;;5052807;28;21058;-65
2024/01/29 02:16:03;;;;;;;3.30;3.00;;;14.90;53.50;;;;;;5053088;28;20540;-64
2024/01/29 02:18:29;;;;;;;2.70;2.50;;;14.90;53.50;;;;;;5051886;28;20297;-65
2024/01/29 02:20:55;;;;;;;3.00;2.60;;;14.90;53.50;;;;;;5052857;28;20233;-65
2024/01/29 02:23:20;;;;;;;3.30;3.00;;;14.90;53.50;;;;;;5052431;28;20183;-65
2024/01/29 02:25:46;;;;;;;2.60;2.40;;;14.90;53.50;;;;;;5052195;28;20707;-65
2024/01/29 02:28:11;;;;;;;2.75;2.55;;;14.90;53.50;;;;;;5052677;28;20657;-64
2024/01/29 02:30:37;;;;;;;3.42;2.65;;;14.90;53.50;;;;;;5052313;28;20219;-63
2024/01/29 02:33:03;;;;;;;3.22;2.90;;;14.90;53.50;;;;;;5052007;28;20175;-63
2024/01/29 02:35:29;;;;;;;3.22;2.92;;;14.90;53.50;;;;;;5052391;28;20545;-64
2024/01/29 02:37:54;;;;;;;3.10;2.70;;;14.90;53.50;;;;;;5052573;28;20175;-64
2024/01/29 02:40:20;;;;;;;2.97;2.67;;;14.90;53.50;;;;;;5051724;28;20232;-64
2024/01/29 02:42:45;;;;;;;2.55;2.35;;;14.80;53.40;;;;;;5052588;28;20224;-65
2024/01/29 02:45:11;;;;;;;3.53;2.63;;;14.80;53.40;;;;;;5052468;28;20229;-64
2024/01/29 02:47:36;;;;;;;2.60;2.40;;;14.80;53.40;;;;;;5051577;28;20183;-63
2024/01/29 02:50:02;;;;;;;2.60;2.40;;;14.80;53.40;;;;;;5052426;28;20665;-64
2024/01/29 02:52:28;;;;;;;2.55;2.35;;;14.80;53.40;;;;;;5051609;28;20179;-64
2024/01/29 02:54:53;;;;;;;2.55;2.35;;;14.80;53.40;;;;;;5051445;28;20227;-65
2024/01/29 02:57:24;;;;;;;2.42;2.22;;;14.80;53.40;;;;;;5052082;28;20178;-65
2024/01/29 02:59:50;;;;;;;2.40;2.30;;;14.70;53.40;;;;;;5052414;28;20175;-65
2024/01/29 03:02:15;;;;;;;2.60;2.40;;;14.80;53.40;;;;;;5051172;28;20175;-64
2024/01/29 03:04:41;;;;;;;2.78;2.50;;;14.80;53.40;;;;;;5051757;28;20201;-65
2024/01/29 03:07:06;;;;;;;2.80;2.60;;;14.80;53.40;;;;;;5051936;28;20641;-64
2024/01/29 03:09:32;;;;;;;3.15;2.53;;;14.80;53.40;;;;;;5051019;28;20708;-65
2024/01/29 03:11:58;;;;;;;3.15;2.85;;;14.80;53.40;;;;;;5051988;28;20186;-65
2024/01/29 03:14:23;;;;;;;2.50;2.30;;;14.80;53.40;;;;;;5051739;28;20186;-65
2024/01/29 03:16:52;;;;;;;2.95;2.65;;;14.70;53.40;;;;;;5050661;28;20195;-64
2024/01/29 03:19:17;;;;;;;2.65;2.45;;;14.70;53.90;;;;;;5051694;28;20185;-65
2024/01/29 03:21:43;;;;;;;2.60;2.40;;;14.70;53.30;;;;;;5051403;28;20179;-65
2024/01/29 03:24:08;;;;;;;3.00;2.70;;;14.70;53.30;;;;;;5051900;28;20604;-66
2024/01/29 03:26:34;;;;;;;2.75;2.45;;;14.70;53.30;;;;;;5051621;28;20769;-65
2024/01/29 03:29:00;;;;;;;3.30;3.00;;;14.70;53.30;;;;;;5051365;28;20174;-64
2024/01/29 03:31:25;;;;;;;2.88;2.60;;;14.70;53.40;;;;;;5051529;28;20224;-64
2024/01/29 03:33:51;;;;;;;2.30;2.10;;;14.70;53.30;;;;;;5051825;28;20175;-63
2024/01/29 03:36:16;;;;;;;2.78;2.58;;;14.70;53.30;;;;;;5050544;28;20183;-63
2024/01/29 03:38:42;;;;;;;3.08;2.63;;;14.70;53.30;;;;;;5051740;28;20186;-65
2024/01/29 03:41:07;;;;;;;2.28;2.13;;;14.70;53.30;;;;;;5051739;28;20174;-65
2024/01/29 03:43:33;;;;;;;2.45;2.28;;;14.70;53.30;;;;;;5051029;28;20454;-64
2024/01/29 03:45:59;;;;;;;2.45;2.25;;;14.70;53.30;;;;;;5051505;28;20221;-64
2024/01/29 03:48:24;;;;;;;2.40;2.20;;;14.70;53.30;;;;;;5051367;28;20541;-64
2024/01/29 03:50:50;;;;;;;2.53;2.33;;;14.60;53.30;;;;;;5051221;28;20174;-64
2024/01/29 03:53:15;;;;;;;3.03;2.83;;;14.70;53.30;;;;;;5051551;28;20258;-64
2024/01/29 03:55:41;;;;;;;2.33;2.13;;;14.60;53.20;;;;;;5051331;28;20318;-65
2024/01/29 03:58:07;;;;;;;2.65;2.45;;;14.60;53.20;;;;;;5050993;28;20182;-65
2024/01/29 04:00:32;;;;;;;2.47;2.28;;;14.60;53.30;;;;;;5051301;28;20178;-64
2024/01/29 04:02:58;;;;;;;2.97;2.70;;;14.60;53.20;;;;;;5051495;28;20174;-65
2024/01/29 04:05:24;;;;;;;2.80;2.60;;;14.60;53.20;;;;;;5050409;28;20217;-65
2024/01/29 04:07:49;;;;;;;2.55;2.25;;;14.60;53.30;;;;;;5051584;28;20183;-65
2024/01/29 04:10:15;;;;;;;2.72;2.53;;;14.60;53.20;;;;;;5051600;28;20642;-65
2024/01/29 04:12:42;;;;;;;2.35;2.20;;;14.60;53.20;;;;;;5050624;28;20552;-65
2024/01/29 04:15:07;;;;;;;2.80;2.28;;;14.60;53.20;;;;;;5051507;28;20183;-65
2024/01/29 04:17:33;;;;;;;2.85;2.65;;;14.60;53.20;;;;;;5051117;28;20233;-65
2024/01/29 04:19:59;;;;;;;2.80;2.60;;;14.60;53.30;;;;;;5050897;28;20190;-65
2024/01/29 04:22:25;;;;;;;2.60;2.13;;;14.50;53.20;;;;;;5051311;28;20218;-66
2024/01/29 04:24:51;;;;;;;2.58;2.38;;;14.50;53.10;;;;;;5050723;28;20214;-65
2024/01/29 04:27:16;;;;;;;2.53;2.22;;;14.50;53.20;;;;;;5052769;28;20171;-65
2024/01/29 04:29:42;;;;;;;2.80;2.30;;;14.50;53.20;;;;;;5055010;28;20187;-64
2024/01/29 04:32:07;;;;;;;2.47;2.28;;;14.50;53.20;;;;;;5054436;28;21105;-63
2024/01/29 04:34:33;;;;;;;2.28;2.13;;;14.50;53.20;;;;;;5054599;28;20190;-63
2024/01/29 04:36:58;;;;;;;2.35;2.10;;;14.50;53.20;;;;;;5055011;28;20182;-63
2024/01/29 04:39:24;;;;;;;2.30;2.15;;;14.50;53.20;;;;;;5054115;28;20580;-64
2024/01/29 04:41:54;;;;;;;2.65;2.40;;;14.50;53.20;;;;;;5054840;28;20650;-64
2024/01/29 04:44:19;;;;;;;2.42;2.22;;;14.50;53.20;;;;;;5054376;28;20756;-64
2024/01/29 04:46:45;;;;;;;2.92;2.72;;;14.50;53.20;;;;;;5053828;28;20275;-64
2024/01/29 04:49:10;;;;;;;2.85;2.58;;;14.50;53.20;;;;;;5054514;28;20313;-63
2024/01/29 04:51:37;;;;;;;2.65;2.45;;;14.50;53.20;;;;;;5054205;28;20232;-63
2024/01/29 04:54:03;;;;;;;2.30;2.10;;;14.40;53.10;;;;;;5053738;28;20404;-63
2024/01/29 04:56:28;;;;;;;2.55;2.35;;;14.40;53.10;;;;;;5054323;28;20698;-65
2024/01/29 04:58:54;;;;;;;2.30;2.13;;;14.40;53.10;;;;;;5054582;28;20194;-65
2024/01/29 05:01:19;;;;;;;2.40;2.20;;;14.50;53.20;;;;;;5053435;28;20167;-64
2024/01/29 05:03:46;;;;;;;2.63;2.42;;;14.40;53.10;;;;;;5054370;28;20182;-64
2024/01/29 05:06:12;;;;;;;2.90;2.70;;;14.40;53.10;;;;;;5054551;28;20590;-64
2024/01/29 05:08:38;;;;;;;2.75;2.55;;;14.40;53.10;;;;;;5053396;28;20243;-64
2024/01/29 05:11:04;;;;;;;2.40;2.30;;;14.40;53.10;;;;;;5054215;28;20665;-66
2024/01/29 05:13:29;;;;;;;2.63;2.40;;;14.40;53.10;;;;;;5053872;28;20167;-64
2024/01/29 05:15:55;;;;;;;2.40;2.20;;;14.40;53.10;;;;;;5053453;28;20198;-64
2024/01/29 05:18:20;;;;;;;2.78;2.25;;;14.40;53.10;;;;;;5054067;28;20521;-64
2024/01/29 05:20:46;;;;;;;2.45;2.15;;;14.40;53.10;;;;;;5054164;28;20179;-65
2024/01/29 05:23:12;;;;;;;2.67;2.47;;;14.40;53.10;;;;;;5053467;28;20222;-65
2024/01/29 05:25:38;;;;;;;3.15;2.85;;;14.40;53.10;;;;;;5053837;28;20218;-65
2024/01/29 05:28:04;;;;;;;3.67;2.90;;;14.30;53.10;;;;;;5053867;28;20183;-64
2024/01/29 05:30:29;;;;;;;2.97;2.75;;;14.30;53.10;;;;;;5052899;28;20193;-63
2024/01/29 05:32:55;;;;;;;2.97;2.67;;;14.30;53.20;;;;;;5053667;28;20168;-63
2024/01/29 05:35:20;;;;;;;3.30;3.00;;;14.30;53.10;;;;;;5052695;28;20218;-63
2024/01/29 05:37:46;;;;;;;2.97;2.78;;;14.30;53.10;;;;;;5053699;28;20171;-64
2024/01/29 05:40:11;;;;;;;2.88;2.67;;;14.30;53.10;;;;;;5052898;28;20534;-65
2024/01/29 05:42:37;;;;;;;2.45;2.30;;;14.30;53.10;;;;;;5052471;28;20178;-64
2024/01/29 05:45:03;;;;;;;2.67;2.47;;;14.30;53.10;;;;;;5053495;28;20214;-64
2024/01/29 05:47:29;;;;;;;2.47;2.28;;;14.30;53.20;;;;;;5053018;28;20175;-63
2024/01/29 05:49:54;;;;;;;2.53;2.33;;;14.30;53.20;;;;;;5052947;28;20249;-63
2024/01/29 05:52:20;;;;;;;2.58;2.38;;;14.30;53.10;;;;;;5052868;28;20704;-64
2024/01/29 05:54:45;;;;;;;2.60;2.40;;;14.40;53.00;;;;;;5053263;28;20223;-64
2024/01/29 05:57:11;;;;;;;2.42;2.22;;;14.40;52.90;;;;;;5052681;28;20203;-65
2024/01/29 05:59:40;;;;;;;2.30;2.10;;;14.60;52.70;;;;;;5052775;28;20282;-64
2024/01/29 06:02:06;;;;;;;2.33;2.08;;;14.70;52.60;;;;;;5053255;28;20260;-65
2024/01/29 06:04:31;;;;;;;2.25;2.15;;;14.80;52.60;;;;;;5052330;28;20604;-64
2024/01/29 06:06:57;;;;;;;2.60;2.40;;;14.90;52.60;;;;;;5053026;28;20190;-65
2024/01/29 06:09:22;;;;;;;2.30;2.10;;;15.00;52.40;;;;;;5052867;28;20182;-65
2024/01/29 06:11:50;;;;;;;2.65;2.45;;;15.10;52.30;;;;;;5052441;28;20221;-64
2024/01/29 06:14:15;;;;;;;3.30;2.40;;;15.30;52.10;;;;;;5052828;28;20171;-65
2024/01/29 06:16:43;;;;;;;2.15;1.95;;;15.40;52.00;;;;;;5052896;28;20179;-65
2024/01/29 06:19:17;;;;;;;2.50;2.30;;;15.60;51.90;;;;;;5052288;28;20202;-65
2024/01/29 06:21:43;;;;;;;2.63;2.40;;;15.60;51.70;;;;;;5053003;28;20213;-65
2024/01/29 06:24:08;;;;;;;3.25;2.30;;;15.70;51.60;;;;;;5052764;28;20630;-65
2024/01/29 06:26:34;;;;;;;2.80;2.53;;;15.80;51.60;;;;;;5051673;28;20245;-65
2024/01/29 06:29:00;;;;;;;2.60;2.40;;;15.80;51.60;;;;;;5052690;28;20277;-65
2024/01/29 06:31:25;;;;;;;2.58;2.38;;;15.80;51.50;;;;;;5051690;28;20186;-63
2024/01/29 06:33:54;;;;;;;2.50;2.30;;;15.80;51.50;;;;;;5052792;28;20167;-63
2024/01/29 06:36:20;;;;;;;2.60;2.40;;;15.80;51.50;;;;;;5052448;28;20250;-64
2024/01/29 06:38:45;;;;;;;2.33;2.10;;;15.80;51.60;;;;;;5051740;28;20990;-65
2024/01/29 06:41:24;;;;;;;2.88;2.30;;;15.90;51.60;;;;;;5052407;28;20177;-65
2024/01/29 06:43:50;;;;;;;2.42;2.10;;;15.80;51.50;;;;;;5052441;28;20642;-63
2024/01/29 06:46:15;;;;;;;3.33;2.30;;;15.90;51.60;;;;;;5051755;28;20253;-64
2024/01/29 06:48:41;;;;;;;2.30;2.10;;;15.90;51.60;;;;;;5052285;28;20580;-63
2024/01/29 06:51:06;;;;;;;2.17;2.05;;;16.00;51.60;;;;;;5051285;28;20195;-64
2024/01/29 06:53:34;;;;;;;2.33;2.13;;;16.00;51.70;;;;;;5051413;28;20171;-64
2024/01/29 06:56:02;;;;;;;2.13;2.00;;;16.20;51.60;;;;;;5052089;28;20231;-64
2024/01/29 06:58:28;;;;;;;2.33;2.22;;;16.30;51.30;;;;;;5052137;28;20186;-65
2024/01/29 07:00:54;;;;;;;2.20;2.00;;;16.40;51.20;;;;;;5051565;28;20543;-64
2024/01/29 07:03:20;;;;;;;3.53;2.53;;;16.50;51.10;;;;;;5051778;28;20644;-65
2024/01/29 07:05:49;;;;;;;2.42;2.20;;;16.50;51.00;;;;;;5052227;28;20211;-64
2024/01/29 07:08:16;;;;;;;3.38;2.42;;;16.60;51.00;;;;;;5051408;28;20186;-65
2024/01/29 07:10:42;;;;;;;2.22;2.13;;;16.60;51.00;;;;;;5051993;28;20182;-65
2024/01/29 07:13:07;;;;;;;2.58;2.38;;;16.60;51.00;;;;;;5052036;28;20167;-65
2024/01/29 07:15:33;;;;;;;2.53;2.33;;;16.60;51.00;;;;;;5051130;28;20270;-64
2024/01/29 07:17:59;;;;;;;2.13;1.92;;;16.70;51.00;;;;;;5052103;28;20253;-64
2024/01/29 07:20:24;;;;;;;2.53;2.28;;;16.70;51.00;;;;;;5051392;28;20321;-65
2024/01/29 07:22:50;;;;;;;2.22;2.10;;;16.70;51.00;;;;;;5051142;28;20175;-65
2024/01/29 07:25:16;;;;;;;2.28;2.08;;;16.80;50.80;;;;;;5051670;28;20215;-65
2024/01/29 07:27:41;;;;;;;2.13;2.03;;;16.80;50.80;;;;;;5051292;28;20178;-64
2024/01/29 07:30:07;;;;;;;2.17;2.08;;;16.80;50.70;;;;;;5052004;28;20198;-64
2024/01/29 07:32:33;;;;;;;2.35;2.17;;;16.90;50.80;;;;;;5051658;28;20177;-64
2024/01/29 07:35:02;;;;;;;2.42;2.22;;;16.90;50.80;;;;;;5051132;28;20171;-64
2024/01/29 07:37:28;;;;;;;2.15;2.00;;;16.90;50.70;;;;;;5051510;28;20648;-64
2024/01/29 07:39:53;;;;;;;2.30;2.10;;;16.90;50.80;;;;;;5051549;28;20175;-64
2024/01/29 07:42:19;;;;;;;2.38;2.17;;;17.00;50.70;;;;;;5051012;28;20266;-65
2024/01/29 07:44:45;;;;;;;2.65;2.42;;;17.00;50.80;;;;;;5051819;28;20198;-64
2024/01/29 07:47:11;;;;;;;2.10;2.00;;;17.00;50.80;;;;;;5051872;28;20218;-64
2024/01/29 07:49:36;;;;;;;2.40;2.20;;;17.00;50.80;;;;;;5050884;28;20199;-63
2024/01/29 07:52:02;;;;;;;2.35;2.08;;;17.00;50.80;;;;;;5051729;28;20179;-63
2024/01/29 07:54:28;;;;;;;2.28;2.08;;;17.00;50.70;;;;;;5051052;28;20230;-64
2024/01/29 07:56:53;;;;;;;2.40;2.20;;;17.00;50.70;;;;;;5050936;28;20638;-64
2024/01/29 07:59:19;;;;;;;2.65;2.28;;;17.00;50.70;;;;;;5051051;28;20180;-65
2024/01/29 08:01:44;;;;;;;2.30;2.15;;;17.00;50.80;;;;;;5051346;28;20202;-64
2024/01/29 08:04:11;;;;;;;3.97;2.35;;;16.90;50.80;;;;;;5054078;28;20179;-64
2024/01/29 08:06:36;;;;;;;3.45;1.85;;;16.80;51.10;;;;;;5055008;28;20211;-65
2024/01/29 08:09:04;;;;;;;2.35;2.15;;;16.80;51.10;;;;;;5055327;28;20174;-65
2024/01/29 08:11:30;;;;;;;2.28;2.13;;;16.80;51.10;;;;;;5054566;28;20183;-64
2024/01/29 08:13:56;;;;;;;2.63;2.13;;;16.90;51.00;;;;;;5055402;28;20183;-64
2024/01/29 08:16:21;;;;;;;2.58;2.33;;;17.00;51.00;;;;;;5054900;28;20597;-64
2024/01/29 08:18:47;;;;;;;2.03;1.80;;;17.00;50.90;;;;;;5054560;28;20536;-65
2024/01/29 08:21:12;;;;;;;2.65;2.40;;;16.90;50.90;;;;;;5055243;28;20258;-66
2024/01/29 08:23:38;;;;;;;2.10;1.90;;;17.00;50.90;;;;;;5054772;28;20171;-65
2024/01/29 08:26:04;;;;;;;2.35;2.08;;;17.00;50.90;;;;;;5054528;28;20207;-65
2024/01/29 08:28:29;;;;;;;2.13;1.83;;;17.10;50.90;;;;;;5054893;28;20605;-64
2024/01/29 08:30:58;;;;;;;2.83;2.20;;;17.10;50.90;;;;;;5055153;28;20612;-63
2024/01/29 08:33:24;;;;;;;2.35;2.08;;;17.10;51.00;;;;;;5054601;28;20548;-64
2024/01/29 08:35:50;;;;;;;2.00;1.90;;;17.10;51.10;;;;;;5054939;28;20186;-63
2024/01/29 08:38:15;;;;;;;3.35;2.33;;;17.10;51.20;;;;;;5053866;28;20178;-65
2024/01/29 08:40:41;;;;;;;2.72;2.53;;;17.10;51.20;;;;;;5054841;28;20172;-64
2024/01/29 08:43:07;;;;;;;2.38;1.95;;;17.10;51.20;;;;;;5054814;28;20254;-65
2024/01/29 08:45:34;;;;;;;2.45;2.25;;;17.00;51.20;;;;;;5053542;28;20252;-64
2024/01/29 08:47:59;;;;;;;2.13;2.03;;;17.00;51.40;;;;;;5054806;28;20236;-64
2024/01/29 08:50:28;;;;;;;2.78;2.58;;;16.90;52.10;;;;;;5054249;28;20175;-64
2024/01/29 08:52:53;;;;;;;2.42;2.00;;;16.90;51.60;;;;;;5053541;28;20532;-65
2024/01/29 08:55:21;;;;;;;2.30;2.10;;;16.80;51.70;;;;;;5054129;28;20235;-64
2024/01/29 08:57:46;;;;;;;2.25;2.05;;;16.80;51.90;;;;;;5054357;28;20178;-66
2024/01/29 09:00:12;;;;;;;8.38;2.40;;;16.80;51.80;;;;;;5053972;28;20175;-64
2024/01/29 09:02:38;;;;;;;4.82;2.53;;;16.80;51.90;;;;;;5054097;28;20220;-65
2024/01/29 09:05:04;;;;;;;4.45;2.28;;;16.80;52.00;;;;;;5054254;28;20211;-67
2024/01/29 09:07:29;;;;;;;5.45;2.47;;;16.70;52.10;;;;;;5053143;28;20673;-67
2024/01/29 09:09:55;;;;;;;4.13;2.47;;;16.70;52.10;;;;;;5054115;28;20669;-69
2024/01/29 09:12:21;;;;;;;3.63;2.30;;;16.80;52.30;;;;;;5053872;28;20182;-69
2024/01/29 09:14:46;;;;;;;2.88;2.00;;;16.70;52.30;;;;;;5052444;28;20182;-68
2024/01/29 09:17:12;;;;;;;3.10;2.13;;;16.70;52.40;;;;;;5053969;28;20187;-68
2024/01/29 09:19:38;;;;;;;3.33;2.30;;;16.60;52.40;;;;;;5053797;28;20171;-68
2024/01/29 09:22:03;;;;;;;2.90;2.20;;;16.70;52.60;;;;;;5053348;28;20179;-67
2024/01/29 09:24:29;;;;;;;2.78;2.25;;;16.70;52.60;;;;;;5053497;28;20183;-68
2024/01/29 09:26:54;;;;;;;3.03;2.30;;;16.70;52.60;;;;;;5053923;28;20187;-67
2024/01/29 09:29:20;;;;;;;3.58;1.70;;;16.70;52.60;;;;;;5052985;28;20175;-69
2024/01/29 09:31:45;;;;;;;2.92;2.10;;;16.70;52.60;;;;;;5053785;28;20175;-67
2024/01/29 09:34:11;;;;;;;3.00;2.28;;;16.70;52.60;;;;;;5053813;28;20176;-71
2024/01/29 09:36:36;;;;;;;2.10;1.90;;;16.70;52.80;;;;;;5052716;28;20199;-69
2024/01/29 09:39:05;;;;;;;2.83;2.28;;;16.70;52.70;;;;;;5053627;28;20268;-70
2024/01/29 09:41:34;;;;;;;3.00;2.08;;;16.70;52.90;;;;;;5052872;28;20183;-70
2024/01/29 09:44:00;;;;;;;2.28;1.98;;;16.60;53.00;;;;;;5053694;28;20179;-71
2024/01/29 09:46:28;;;;;;;2.78;2.53;;;16.60;52.80;;;;;;5051963;28;20211;-66
2024/01/29 09:48:54;;;;;;;4.57;2.35;;;16.70;53.10;;;;;;5051469;28;20208;-65
2024/01/29 09:51:20;;;;;;;5.55;2.90;;;16.60;53.10;;;;;;5053247;28;20264;-66
2024/01/29 09:53:45;;;;;;;3.35;2.42;;;16.60;53.20;;;;;;5052444;28;20229;-64
2024/01/29 09:56:11;;;;;;;3.97;2.17;;;16.60;53.20;;;;;;5051332;28;20631;-66
2024/01/29 09:58:36;;;;;;;5.88;2.47;;;16.60;53.20;;;;;;5053301;28;20179;-67
2024/01/29 10:01:03;;;;;;;3.90;2.60;;;16.60;53.40;;;;;;5052047;28;20270;-66
2024/01/29 10:03:31;;;;;;;4.07;2.33;;;16.50;53.40;;;;;;5051006;28;20171;-66
2024/01/29 10:05:58;;;;;;;2.50;2.30;;;16.50;53.40;;;;;;5053146;28;20242;-65
2024/01/29 10:08:24;;;;;;;2.30;2.03;;;16.50;53.50;;;;;;5052992;28;20250;-66
2024/01/29 10:10:50;;;;;;;4.82;2.10;;;16.50;53.60;;;;;;5051124;28;20206;-71
2024/01/29 10:13:16;;;;;;;5.25;2.75;;;16.50;53.60;;;;;;5052811;28;20266;-67
2024/01/29 10:15:42;;;;;;;2.75;2.17;;;16.50;53.70;;;;;;5052629;28;20265;-67
2024/01/29 10:18:11;;;;;;;2.65;2.30;;;16.50;53.70;;;;;;5051335;28;20171;-67
2024/01/29 10:20:36;;;;;;;5.28;2.15;;;16.50;53.60;;;;;;5052739;28;20183;-66
2024/01/29 10:23:02;;;;;;;2.92;2.25;;;16.50;53.70;;;;;;5051828;28;20221;-69
2024/01/29 10:25:29;;;;;;;4.43;2.55;;;16.50;53.60;;;;;;5051508;28;20203;-67
2024/01/29 10:28:10;;;;;;;3.08;2.58;;;16.50;53.70;;;;;;5052749;28;20179;-69
2024/01/29 10:30:36;;;;;;;4.30;2.60;;;16.40;53.70;;;;;;5051690;28;20194;-69
2024/01/29 10:33:02;;;;;;;4.78;2.50;;;16.40;53.80;;;;;;5052873;28;20187;-68
2024/01/29 10:35:28;;;;;;;3.35;2.60;;;16.40;53.80;;;;;;5052397;28;20175;-68
2024/01/29 10:37:54;;;;;;;5.32;2.13;;;16.40;53.90;;;;;;5052011;28;20233;-68
2024/01/29 10:40:20;;;;;;;4.60;2.58;;;16.40;53.90;;;;;;5052293;28;20673;-72
2024/01/29 10:42:45;;;;;;;4.57;3.05;;;16.30;53.90;;;;;;5051316;28;20262;-69
2024/01/29 10:45:11;;;;;;;4.47;2.80;;;16.30;53.90;;;;;;5051598;28;20700;-69
2024/01/29 10:47:39;;;;;;;3.25;2.20;;;16.30;54.10;;;;;;5052068;28;20656;-69
2024/01/29 10:50:07;;;;;;;3.72;2.45;;;16.30;54.10;;;;;;5051246;28;20186;-68
2024/01/29 10:52:33;;;;;;;3.70;2.38;;;16.30;54.00;;;;;;5051440;28;20236;-68
2024/01/29 10:54:59;;;;;;;6.82;2.67;;;16.30;54.10;;;;;;5052316;28;20231;-68
2024/01/29 10:57:24;;;;;;;4.95;2.50;;;16.30;54.10;;;;;;5051853;28;20270;-69
2024/01/29 10:59:50;;;;;;;4.82;2.50;;;16.30;54.00;;;;;;5050299;28;20254;-69
2024/01/29 11:02:15;;;;;;;5.18;2.50;;;16.30;54.00;;;;;;5051197;28;20175;-67
2024/01/29 11:04:41;;;;;;;4.63;2.80;;;16.40;53.90;;;;;;5051962;28;20187;-68
2024/01/29 11:07:12;;;;;;;3.33;2.70;;;16.40;53.80;;;;;;5051558;28;20642;-67
2024/01/29 11:09:38;;;;;;;5.45;2.85;;;16.50;53.90;;;;;;5050896;28;20186;-68
2024/01/29 11:12:05;;;;;;;4.78;2.70;;;16.60;53.90;;;;;;5051044;28;20220;-67
2024/01/29 11:14:30;;;;;;;3.13;2.05;;;16.80;53.70;;;;;;5050883;28;20175;-67
2024/01/29 11:16:56;;;;;;;3.45;2.00;;;17.00;53.50;;;;;;5051893;28;20187;-68
2024/01/29 11:19:23;;;;;;;2.40;2.17;;;17.10;53.30;;;;;;5051877;28;20179;-68
2024/01/29 11:21:52;;;;;;;3.20;2.22;;;17.40;53.00;;;;;;5050149;28;20198;-69
2024/01/29 11:24:21;;;;;;;4.22;2.58;;;17.50;52.80;;;;;;5051751;28;20171;-68
2024/01/29 11:26:47;;;;;;;4.30;2.13;;;17.70;52.60;;;;;;5051806;28;20693;-68
2024/01/29 11:29:14;;;;;;;2.60;2.17;;;17.90;52.30;;;;;;5051519;28;20198;-68
2024/01/29 11:31:45;;;;;;;2.60;2.20;;;17.90;52.10;;;;;;5051722;28;20179;-68
2024/01/29 11:34:24;;;;;;;4.40;2.38;;;18.00;52.00;;;;;;5051363;28;20175;-69
2024/01/29 11:36:53;;;;;;;4.68;2.30;;;18.10;52.00;;;;;;5052707;28;20182;-69
2024/01/29 11:39:22;;;;;;;3.33;2.25;;;18.10;51.80;;;;;;5058846;28;20170;-68
2024/01/29 11:41:48;;;;;;;3.65;2.33;;;18.10;51.90;;;;;;5068763;28;20691;-69
2024/01/29 11:44:17;;;;;;;2.20;2.00;;;18.20;52.00;;;;;;5058410;28;20175;-68
2024/01/29 11:46:42;;;;;;;2.15;1.80;;;18.20;52.10;;;;;;5057461;28;20264;-68
2024/01/29 11:49:08;;;;;;;2.47;1.98;;;18.20;51.90;;;;;;5075357;28;20177;-68
2024/01/29 11:51:34;;;;;;;2.38;1.67;;;18.30;51.90;;;;;;5075742;28;20170;-68
2024/01/29 11:53:59;;;;;;;2.75;2.30;;;18.30;51.80;;;;;;5075333;28;20171;-68
2024/01/29 11:56:25;;;;;;;2.92;1.90;;;18.40;51.90;;;;;;5074618;28;20261;-68
2024/01/29 11:59:00;;;;;;;2.70;1.90;;;18.40;51.80;;;;;;5068832;28;20174;-68
2024/01/29 12:01:25;;;;;;;2.30;2.00;;;18.40;51.80;;;;;;5055373;28;20189;-68
2024/01/29 12:03:51;;;;;;;2.40;2.05;;;18.40;51.80;;;;;;5054875;28;20175;-68
2024/01/29 12:06:17;;;;;;;4.82;1.95;;;18.40;51.90;;;;;;5055191;28;20214;-68
2024/01/29 12:08:47;;;;;;;4.03;2.00;;;18.40;52.00;;;;;;5055238;28;20534;-69
2024/01/29 12:11:14;;;;;;;2.00;1.85;;;18.40;51.90;;;;;;5054742;28;20194;-68
2024/01/29 12:13:40;;;;;;;2.75;1.90;;;18.40;52.00;;;;;;5053862;28;20228;-68
2024/01/29 12:16:06;;;;;;;2.55;2.17;;;18.40;52.00;;;;;;5053597;28;20270;-68
2024/01/29 12:18:31;;;;;;;2.17;1.92;;;18.50;52.00;;;;;;5054550;28;20309;-68
2024/01/29 12:20:57;;;;;;;2.85;2.35;;;18.40;52.00;;;;;;5053898;28;20220;-68
2024/01/29 12:23:23;;;;;;;2.17;1.88;;;18.50;52.10;;;;;;5054300;28;20278;-68
2024/01/29 12:25:53;;;;;;;3.08;2.17;;;18.50;52.10;;;;;;5055112;28;20254;-68
2024/01/29 12:28:19;;;;;;;3.10;2.33;;;18.50;52.10;;;;;;5054864;28;20174;-68
2024/01/29 12:31:06;;;;;;;3.33;2.50;;;18.50;52.30;;;;;;5052279;28;20179;-68
2024/01/29 12:33:31;;;;;;;2.03;1.92;;;18.50;52.20;;;;;;5054547;28;20179;-68
2024/01/29 12:35:58;;;;;;;2.15;2.03;;;18.40;52.20;;;;;;5055042;28;20179;-69
2024/01/29 12:38:23;;;;;;;2.35;1.92;;;18.50;52.20;;;;;;5054030;28;20225;-69
2024/01/29 12:40:55;;;;;;;3.10;2.20;;;18.50;52.10;;;;;;5054935;28;20179;-69